createdAt,value
2018-06-01T00:01:36.007Z,24.90
2018-06-01T00:04:04.240Z,24.90
2018-06-01T00:06:31.664Z,24.90
2018-06-01T00:08:59.099Z,24.90
2018-06-01T00:11:27.295Z,25.10
2018-06-01T00:13:54.731Z,25.00
2018-06-01T00:16:22.939Z,25.00
2018-06-01T00:18:50.423Z,24.90
2018-06-01T00:21:17.865Z,25.00
2018-06-01T00:23:45.341Z,25.00
2018-06-01T00:26:12.795Z,25.00
2018-06-01T00:28:40.257Z,25.10
2018-06-01T00:31:07.692Z,25.00
2018-06-01T00:33:35.131Z,24.90
2018-06-01T00:36:03.253Z,25.00
2018-06-01T00:38:30.688Z,24.90
2018-06-01T00:40:58.167Z,24.90
2018-06-01T00:43:25.610Z,24.70
2018-06-01T00:45:53.048Z,24.70
2018-06-01T00:48:20.498Z,24.70
2018-06-01T00:50:48.690Z,24.60
2018-06-01T00:53:16.115Z,24.60
2018-06-01T00:55:44.318Z,24.70
2018-06-01T00:58:11.743Z,24.60
2018-06-01T01:00:39.951Z,24.60
2018-06-01T01:03:07.382Z,24.60
2018-06-01T01:05:35.588Z,24.40
2018-06-01T01:08:03.276Z,24.40
2018-06-01T01:10:30.729Z,24.50
2018-06-01T01:12:58.177Z,24.50
2018-06-01T01:15:25.607Z,24.50
2018-06-01T01:17:53.036Z,24.50
2018-06-01T01:20:20.471Z,24.50
2018-06-01T01:22:47.919Z,24.50
2018-06-01T01:25:15.342Z,24.50
2018-06-01T01:27:42.776Z,24.50
2018-06-01T01:30:10.990Z,24.50
2018-06-01T01:32:38.427Z,24.50
2018-06-01T01:35:06.372Z,24.50
2018-06-01T01:37:34.572Z,24.50
2018-06-01T01:40:02.047Z,24.50
2018-06-01T01:42:29.488Z,24.50
2018-06-01T01:44:56.919Z,24.60
2018-06-01T01:47:25.136Z,24.50
2018-06-01T01:49:54.351Z,24.40
2018-06-01T01:52:21.782Z,24.40
2018-06-01T01:54:49.216Z,24.40
2018-06-01T01:57:17.424Z,24.50
2018-06-01T01:59:44.872Z,24.40
2018-06-01T02:02:12.348Z,24.40
2018-06-01T02:04:39.770Z,24.40
2018-06-01T02:07:07.972Z,24.40
2018-06-01T02:09:35.399Z,24.40
2018-06-01T02:12:03.379Z,24.50
2018-06-01T02:14:30.763Z,24.60
2018-06-01T02:16:58.202Z,24.60
2018-06-01T02:19:25.640Z,24.70
2018-06-01T02:21:53.836Z,24.70
2018-06-01T02:24:21.287Z,24.70
2018-06-01T02:26:48.724Z,24.70
2018-06-01T02:29:16.924Z,24.70
2018-06-01T02:31:44.387Z,24.60
2018-06-01T02:34:11.811Z,24.60
2018-06-01T02:36:40.012Z,24.60
2018-06-01T02:39:07.434Z,24.60
2018-06-01T02:41:35.654Z,24.50
2018-06-01T02:44:03.449Z,24.50
2018-06-01T02:46:30.893Z,24.30
2018-06-01T02:48:58.320Z,24.30
2018-06-01T02:51:26.516Z,24.20
2018-06-01T02:53:53.963Z,24.20
2018-06-01T02:56:21.400Z,24.30
2018-06-01T02:58:49.604Z,24.30
2018-06-01T03:01:17.970Z,24.30
2018-06-01T03:03:46.157Z,24.30
2018-06-01T03:06:13.598Z,24.30
2018-06-01T03:08:41.784Z,24.30
2018-06-01T03:11:09.211Z,24.20
2018-06-01T03:13:37.421Z,24.40
2018-06-01T03:16:04.865Z,24.30
2018-06-01T03:18:32.300Z,24.30
2018-06-01T03:21:00.495Z,24.10
2018-06-01T03:23:27.919Z,24.10
2018-06-01T03:25:55.360Z,24.20
2018-06-01T03:28:22.795Z,24.10
2018-06-01T03:30:50.241Z,24.20
2018-06-01T03:33:17.663Z,24.20
2018-06-01T03:35:45.884Z,24.30
2018-06-01T03:38:13.309Z,24.20
2018-06-01T03:40:40.749Z,24.30
2018-06-01T03:43:08.947Z,24.30
2018-06-01T03:45:36.389Z,24.30
2018-06-01T03:48:04.583Z,24.40
2018-06-01T03:50:32.025Z,24.30
2018-06-01T03:53:00.224Z,24.50
2018-06-01T03:55:27.668Z,24.50
2018-06-01T03:57:55.144Z,24.60
2018-06-01T04:00:22.556Z,24.60
2018-06-01T04:02:50.047Z,24.60
2018-06-01T04:05:17.458Z,24.70
2018-06-01T04:07:45.676Z,24.70
2018-06-01T04:10:13.864Z,24.70
2018-06-01T04:12:41.311Z,24.70
2018-06-01T04:15:08.743Z,24.50
2018-06-01T04:17:36.944Z,24.80
2018-06-01T04:20:04.380Z,24.70
2018-06-01T04:22:32.571Z,25.00
2018-06-01T04:25:00.748Z,24.90
2018-06-01T04:27:28.941Z,25.30
2018-06-01T04:29:56.928Z,25.20
2018-06-01T04:32:24.364Z,25.40
2018-06-01T04:34:51.804Z,25.50
2018-06-01T04:37:19.413Z,25.60
2018-06-01T04:39:51.825Z,25.70
2018-06-01T04:42:19.392Z,25.80
2018-06-01T04:44:47.604Z,26.00
2018-06-01T04:47:15.056Z,26.00
2018-06-01T04:49:42.490Z,26.00
2018-06-01T04:52:09.932Z,26.10
2018-06-01T04:54:38.132Z,26.30
2018-06-01T04:57:05.570Z,26.30
2018-06-01T04:59:33.776Z,25.90
2018-06-01T05:02:01.221Z,25.90
2018-06-01T05:04:28.733Z,25.90
2018-06-01T05:06:56.175Z,25.90
2018-06-01T05:09:23.630Z,26.10
2018-06-01T05:11:51.063Z,26.00
2018-06-01T05:14:18.530Z,26.00
2018-06-01T05:16:45.962Z,26.00
2018-06-01T05:19:13.391Z,26.00
2018-06-01T05:21:40.831Z,26.00
2018-06-01T05:24:08.278Z,26.30
2018-06-01T05:26:35.719Z,26.50
2018-06-01T05:29:03.815Z,26.70
2018-06-01T05:31:31.293Z,26.60
2018-06-01T05:33:58.696Z,26.50
2018-06-01T05:36:26.119Z,26.70
2018-06-01T05:38:54.332Z,26.80
2018-06-01T05:41:21.759Z,26.80
2018-06-01T05:43:49.975Z,27.00
2018-06-01T05:46:17.449Z,26.90
2018-06-01T05:48:45.712Z,27.80
2018-06-01T05:51:13.127Z,27.70
2018-06-01T05:53:40.583Z,28.10
2018-06-01T05:56:08.777Z,28.30
2018-06-01T05:58:36.213Z,28.30
2018-06-01T06:01:03.826Z,28.10
2018-06-01T06:03:31.271Z,28.00
2018-06-01T06:05:58.715Z,27.90
2018-06-01T06:08:26.155Z,27.90
2018-06-01T06:10:54.347Z,27.90
2018-06-01T06:13:21.815Z,27.90
2018-06-01T06:15:49.973Z,28.20
2018-06-01T06:18:17.429Z,28.20
2018-06-01T06:20:45.619Z,28.20
2018-06-01T06:23:13.056Z,28.20
2018-06-01T06:25:40.549Z,28.30
2018-06-01T06:28:08.709Z,28.40
2018-06-01T06:30:36.147Z,28.40
2018-06-01T06:33:04.649Z,28.20
2018-06-01T06:35:32.073Z,28.20
2018-06-01T06:38:00.284Z,28.10
2018-06-01T06:40:27.710Z,28.00
2018-06-01T06:42:55.150Z,28.10
2018-06-01T06:45:23.342Z,28.00
2018-06-01T06:47:51.547Z,28.00
2018-06-01T06:50:18.980Z,28.00
2018-06-01T06:52:46.420Z,28.10
2018-06-01T06:55:13.892Z,27.90
2018-06-01T06:57:41.292Z,28.00
2018-06-01T07:00:08.736Z,28.10
2018-06-01T07:02:36.183Z,28.00
2018-06-01T07:05:03.988Z,28.10
2018-06-01T07:07:32.356Z,28.00
2018-06-01T07:09:59.797Z,28.00
2018-06-01T07:12:27.227Z,28.00
2018-06-01T07:14:54.666Z,28.00
2018-06-01T07:17:22.904Z,27.90
2018-06-01T07:19:50.360Z,27.90
2018-06-01T07:22:17.796Z,27.80
2018-06-01T07:24:45.226Z,27.60
2018-06-01T07:27:12.651Z,27.50
2018-06-01T07:29:40.132Z,27.60
2018-06-01T07:32:08.332Z,27.40
2018-06-01T07:34:35.773Z,27.40
2018-06-01T07:37:04.879Z,27.30
2018-06-01T07:39:32.311Z,27.30
2018-06-01T07:42:00.516Z,27.20
2018-06-01T07:44:27.976Z,27.20
2018-06-01T07:46:55.453Z,27.20
2018-06-01T07:49:22.885Z,27.10
2018-06-01T07:51:50.326Z,27.00
2018-06-01T07:54:18.648Z,26.80
2018-06-01T07:56:46.071Z,26.70
2018-06-01T07:59:13.506Z,26.70
2018-06-01T08:01:40.954Z,26.40
2018-06-01T08:04:08.396Z,26.10
2018-06-01T08:06:35.825Z,26.30
2018-06-01T08:09:04.964Z,26.30
2018-06-01T08:11:34.209Z,26.30
2018-06-01T08:14:02.401Z,25.70
2018-06-01T08:16:29.824Z,25.70
2018-06-01T08:18:57.275Z,25.90
2018-06-01T08:21:25.584Z,26.10
2018-06-01T08:23:53.018Z,26.00
2018-06-01T08:26:21.220Z,26.00
2018-06-01T08:28:48.646Z,26.00
2018-06-01T08:31:16.844Z,26.20
2018-06-01T08:33:44.295Z,26.10
2018-06-01T08:36:12.476Z,25.90
2018-06-01T08:38:39.913Z,25.90
2018-06-01T08:41:08.108Z,25.90
2018-06-01T08:43:35.550Z,25.90
2018-06-01T08:46:04.659Z,25.80
2018-06-01T08:48:32.107Z,25.80
2018-06-01T08:51:00.406Z,25.80
2018-06-01T08:53:27.829Z,25.70
2018-06-01T08:55:56.051Z,25.60
2018-06-01T08:58:23.475Z,25.60
2018-06-01T09:00:50.970Z,25.70
2018-06-01T09:03:18.427Z,25.80
2018-06-01T09:05:45.883Z,25.70
2018-06-01T09:08:13.336Z,25.80
2018-06-01T09:10:40.767Z,25.70
2018-06-01T09:13:08.194Z,25.80
2018-06-01T09:15:35.637Z,25.60
2018-06-01T09:18:03.079Z,25.70
2018-06-01T09:20:30.527Z,25.70
2018-06-01T09:22:57.975Z,25.90
2018-06-01T09:25:25.408Z,26.00
2018-06-01T09:27:52.836Z,26.00
2018-06-01T09:30:20.271Z,26.10
2018-06-01T09:32:47.702Z,26.00
2018-06-01T09:35:15.130Z,25.90
2018-06-01T09:37:43.336Z,26.10
2018-06-01T09:40:10.773Z,26.10
2018-06-01T09:42:38.204Z,26.30
2018-06-01T09:45:05.642Z,26.40
2018-06-01T09:47:33.168Z,26.50
2018-06-01T09:50:00.607Z,26.70
2018-06-01T09:52:28.036Z,26.90
2018-06-01T09:54:55.476Z,26.90
2018-06-01T09:57:22.906Z,27.00
2018-06-01T09:59:50.344Z,27.00
2018-06-01T10:02:17.779Z,27.00
2018-06-01T10:04:45.984Z,27.10
2018-06-01T10:07:13.424Z,27.00
2018-06-01T10:09:41.040Z,27.10
2018-06-01T10:12:08.472Z,27.00
2018-06-01T10:14:35.902Z,26.90
2018-06-01T10:17:04.261Z,27.20
2018-06-01T10:19:32.456Z,28.10
2018-06-01T10:21:59.908Z,28.20
2018-06-01T10:24:28.141Z,29.20
2018-06-01T10:26:55.576Z,29.20
2018-06-01T10:29:23.751Z,30.00
2018-06-01T10:31:51.196Z,31.60
2018-06-01T10:34:18.642Z,33.20
2018-06-01T10:36:46.069Z,33.60
2018-06-01T10:39:14.272Z,35.80
2018-06-01T10:41:41.712Z,35.80
2018-06-01T10:44:09.916Z,33.90
2018-06-01T10:46:37.359Z,33.90
2018-06-01T10:49:04.797Z,32.70
2018-06-01T10:51:33.015Z,32.90
2018-06-01T10:54:00.569Z,32.90
2018-06-01T10:56:28.059Z,33.50
2018-06-01T10:58:55.499Z,34.70
2018-06-01T11:01:22.931Z,35.60
2018-06-01T11:03:50.381Z,35.20
2018-06-01T11:06:18.581Z,34.70
2018-06-01T11:08:46.012Z,34.70
2018-06-01T11:11:13.454Z,34.00
2018-06-01T11:13:41.710Z,33.70
2018-06-01T11:16:09.092Z,33.80
2018-06-01T11:18:37.306Z,33.60
2018-06-01T11:21:04.741Z,33.60
2018-06-01T11:23:32.177Z,33.20
2018-06-01T11:26:00.405Z,33.00
2018-06-01T11:28:27.820Z,33.00
2018-06-01T11:30:56.063Z,34.40
2018-06-01T11:33:23.497Z,34.40
2018-06-01T11:35:50.933Z,34.90
2018-06-01T11:38:18.382Z,35.40
2018-06-01T11:40:46.567Z,34.80
2018-06-01T11:43:14.000Z,34.80
2018-06-01T11:45:41.443Z,35.20
2018-06-01T11:48:09.644Z,36.30
2018-06-01T11:50:37.119Z,36.30
2018-06-01T11:53:04.688Z,36.70
2018-06-01T11:55:32.126Z,36.70
2018-06-01T11:57:59.560Z,36.10
2018-06-01T12:00:27.771Z,34.20
2018-06-01T12:02:55.451Z,34.20
2018-06-01T12:05:22.887Z,33.30
2018-06-01T12:07:50.321Z,33.70
2018-06-01T12:10:17.752Z,33.50
2018-06-01T12:12:45.193Z,33.60
2018-06-01T12:15:12.642Z,33.50
2018-06-01T12:17:40.079Z,33.40
2018-06-01T12:20:07.503Z,33.20
2018-06-01T12:22:34.939Z,32.80
2018-06-01T12:25:03.142Z,32.90
2018-06-01T12:27:30.576Z,32.80
2018-06-01T12:29:58.775Z,33.80
2018-06-01T12:32:26.217Z,33.80
2018-06-01T12:34:54.421Z,34.60
2018-06-01T12:37:21.867Z,34.60
2018-06-01T12:39:49.295Z,35.00
2018-06-01T12:42:17.503Z,35.60
2018-06-01T12:44:44.934Z,35.50
2018-06-01T12:47:13.150Z,36.60
2018-06-01T12:49:40.579Z,36.50
2018-06-01T12:52:08.781Z,36.10
2018-06-01T12:54:36.217Z,36.10
2018-06-01T12:57:05.343Z,34.90
2018-06-01T12:59:32.763Z,34.90
2018-06-01T13:02:01.173Z,32.40
2018-06-01T13:04:29.114Z,32.40
2018-06-01T13:06:56.595Z,31.80
2018-06-01T13:09:24.005Z,31.60
2018-06-01T13:11:51.518Z,31.50
2018-06-01T13:14:18.955Z,31.50
2018-06-01T13:16:46.385Z,31.30
2018-06-01T13:19:13.804Z,31.00
2018-06-01T13:21:41.289Z,30.70
2018-06-01T13:24:08.705Z,30.40
2018-06-01T13:26:36.136Z,30.50
2018-06-01T13:29:03.554Z,30.50
2018-06-01T13:31:31.001Z,31.20
2018-06-01T13:33:58.431Z,31.90
2018-06-01T13:36:25.868Z,32.90
2018-06-01T13:38:53.305Z,32.70
2018-06-01T13:41:20.753Z,32.90
2018-06-01T13:43:48.170Z,33.20
2018-06-01T13:46:15.591Z,33.40
2018-06-01T13:48:43.024Z,33.20
2018-06-01T13:51:10.466Z,33.10
2018-06-01T13:53:37.897Z,33.00
2018-06-01T13:56:05.351Z,32.70
2018-06-01T13:58:32.799Z,32.80
2018-06-01T14:01:00.233Z,32.90
2018-06-01T14:03:28.440Z,32.40
2018-06-01T14:05:55.875Z,32.40
2018-06-01T14:08:23.306Z,31.30
2018-06-01T14:10:50.732Z,31.60
2018-06-01T14:13:18.167Z,31.80
2018-06-01T14:15:45.605Z,31.50
2018-06-01T14:18:13.035Z,31.60
2018-06-01T14:20:40.465Z,31.20
2018-06-01T14:23:07.899Z,30.60
2018-06-01T14:25:35.336Z,29.90
2018-06-01T14:28:02.784Z,29.40
2018-06-01T14:30:31.212Z,29.20
2018-06-01T14:32:58.635Z,29.20
2018-06-01T14:35:26.078Z,28.80
2018-06-01T14:37:54.281Z,28.30
2018-06-01T14:40:21.724Z,28.30
2018-06-01T14:42:49.269Z,28.00
2018-06-01T14:45:17.453Z,28.40
2018-06-01T14:47:44.904Z,28.40
2018-06-01T14:50:13.102Z,29.40
2018-06-01T14:52:40.546Z,29.30
2018-06-01T14:55:07.971Z,29.80
2018-06-01T14:57:35.403Z,30.10
2018-06-01T15:00:02.846Z,30.30
2018-06-01T15:02:30.290Z,30.20
2018-06-01T15:04:57.724Z,30.50
2018-06-01T15:07:25.933Z,31.20
2018-06-01T15:09:53.358Z,31.20
2018-06-01T15:12:21.570Z,31.80
2018-06-01T15:14:48.997Z,31.80
2018-06-01T15:17:16.447Z,32.00
2018-06-01T15:19:44.675Z,31.80
2018-06-01T15:22:12.099Z,31.80
2018-06-01T15:24:39.537Z,31.90
2018-06-01T15:27:06.980Z,31.10
2018-06-01T15:29:34.403Z,31.20
2018-06-01T15:32:01.839Z,31.70
2018-06-01T15:34:29.275Z,32.10
2018-06-01T15:36:56.715Z,31.90
2018-06-01T15:39:24.929Z,31.10
2018-06-01T15:41:52.363Z,31.10
2018-06-01T15:44:19.812Z,31.10
2018-06-01T15:46:48.015Z,31.40
2018-06-01T15:49:15.437Z,31.30
2018-06-01T15:51:43.705Z,31.30
2018-06-01T15:54:11.916Z,31.00
2018-06-01T15:56:39.339Z,31.00
2018-06-01T15:59:07.550Z,29.90
2018-06-01T16:01:34.982Z,29.90
2018-06-01T16:04:03.591Z,29.40
2018-06-01T16:06:31.017Z,29.40
2018-06-01T16:08:59.220Z,29.50
2018-06-01T16:11:26.648Z,29.50
2018-06-01T16:13:54.867Z,29.40
2018-06-01T16:16:22.307Z,29.40
2018-06-01T16:18:49.753Z,29.10
2018-06-01T16:21:17.967Z,28.90
2018-06-01T16:23:45.396Z,28.90
2018-06-01T16:26:12.847Z,29.20
2018-06-01T16:28:41.043Z,29.80
2018-06-01T16:31:08.485Z,29.70
2018-06-01T16:33:35.903Z,29.50
2018-06-01T16:36:03.349Z,29.10
2018-06-01T16:38:30.771Z,28.60
2018-06-01T16:40:58.216Z,28.30
2018-06-01T16:43:25.670Z,28.20
2018-06-01T16:45:53.114Z,28.20
2018-06-01T16:48:21.737Z,27.90
2018-06-01T16:50:49.192Z,27.90
2018-06-01T16:53:16.627Z,27.80
2018-06-01T16:55:44.861Z,27.80
2018-06-01T16:58:12.281Z,27.80
2018-06-01T17:00:39.724Z,27.70
2018-06-01T17:03:07.188Z,27.80
2018-06-01T17:05:34.639Z,27.60
2018-06-01T17:08:02.115Z,27.30
2018-06-01T17:10:30.274Z,27.20
2018-06-01T17:12:57.700Z,27.20
2018-06-01T17:15:25.919Z,27.30
2018-06-01T17:17:53.343Z,27.30
2018-06-01T17:20:21.549Z,27.40
2018-06-01T17:22:48.989Z,27.40
2018-06-01T17:25:16.419Z,27.10
2018-06-01T17:27:43.875Z,27.00
2018-06-01T17:30:11.296Z,26.50
2018-06-01T17:32:38.755Z,26.40
2018-06-01T17:35:06.194Z,26.50
2018-06-01T17:37:33.629Z,26.10
2018-06-01T17:40:01.823Z,26.00
2018-06-01T17:42:29.318Z,26.00
2018-06-01T17:44:56.758Z,25.70
2018-06-01T17:47:24.187Z,25.50
2018-06-01T17:49:51.628Z,25.70
2018-06-01T17:52:19.848Z,26.00
2018-06-01T17:54:47.303Z,26.00
2018-06-01T17:57:14.754Z,25.50
2018-06-01T17:59:42.220Z,25.50
2018-06-01T18:02:09.659Z,25.50
2018-06-01T18:04:37.091Z,25.50
2018-06-01T18:07:05.522Z,25.70
2018-06-01T18:09:32.944Z,25.60
2018-06-01T18:12:00.516Z,24.70
2018-06-01T18:14:27.995Z,24.50
2018-06-01T18:16:55.451Z,24.40
2018-06-01T18:19:22.906Z,24.40
2018-06-01T18:21:50.332Z,24.70
2018-06-01T18:24:17.797Z,24.30
2018-06-01T18:26:45.270Z,24.30
2018-06-01T18:29:12.720Z,23.90
2018-06-01T18:31:40.209Z,23.80
2018-06-01T18:34:07.642Z,24.10
2018-06-01T18:36:35.118Z,24.40
2018-06-01T18:39:02.554Z,24.40
2018-06-01T18:41:30.029Z,24.50
2018-06-01T18:43:57.531Z,24.70
2018-06-01T18:46:24.946Z,24.20
2018-06-01T18:48:52.976Z,24.40
2018-06-01T18:51:20.513Z,24.50
2018-06-01T18:53:48.156Z,24.10
2018-06-01T18:56:15.584Z,24.40
2018-06-01T18:58:43.024Z,24.20
2018-06-01T19:01:10.451Z,24.20
2018-06-01T19:03:38.661Z,23.90
2018-06-01T19:06:06.096Z,23.80
2018-06-01T19:08:34.300Z,23.60
2018-06-01T19:11:01.774Z,23.50
2018-06-01T19:13:29.223Z,23.70
2018-06-01T19:15:56.669Z,23.30
2018-06-01T19:18:24.108Z,23.30
2018-06-01T19:20:51.557Z,23.40
2018-06-01T19:23:19.788Z,23.10
2018-06-01T19:25:47.322Z,23.00
2018-06-01T19:28:14.758Z,23.00
2018-06-01T19:30:42.191Z,23.00
2018-06-01T19:33:10.416Z,23.30
2018-06-01T19:35:37.881Z,23.30
2018-06-01T19:38:05.660Z,23.50
2018-06-01T19:40:33.100Z,23.50
2018-06-01T19:43:00.540Z,23.20
2018-06-01T19:45:28.114Z,23.30
2018-06-01T19:47:55.532Z,23.20
2018-06-01T19:50:23.759Z,22.80
2018-06-01T19:52:51.199Z,22.80
2018-06-01T19:55:18.647Z,22.80
2018-06-01T19:57:46.077Z,22.80
2018-06-01T20:00:14.271Z,23.40
2018-06-01T20:02:41.716Z,23.40
2018-06-01T20:05:09.924Z,22.70
2018-06-01T20:07:39.346Z,22.60
2018-06-01T20:10:06.808Z,22.80
2018-06-01T20:12:34.283Z,23.00
2018-06-01T20:15:01.731Z,23.10
2018-06-01T20:17:29.163Z,22.90
2018-06-01T20:19:56.607Z,22.60
2018-06-01T20:22:24.059Z,22.80
2018-06-01T20:24:52.245Z,23.30
2018-06-01T20:27:19.687Z,23.30
2018-06-01T20:29:47.120Z,23.50
2018-06-01T20:32:14.553Z,23.40
2018-06-01T20:34:42.083Z,23.30
2018-06-01T20:37:09.499Z,23.20
2018-06-01T20:39:37.691Z,23.10
2018-06-01T20:42:05.821Z,23.10
2018-06-01T20:44:33.255Z,23.00
2018-06-01T20:47:00.699Z,22.70
2018-06-01T20:49:28.196Z,22.90
2018-06-01T20:51:55.628Z,23.00
2018-06-01T20:54:23.068Z,23.00
2018-06-01T20:56:50.538Z,22.70
2018-06-01T20:59:17.973Z,22.90
2018-06-01T21:01:45.686Z,23.10
2018-06-01T21:04:13.136Z,23.20
2018-06-01T21:06:40.672Z,23.10
2018-06-01T21:09:08.137Z,23.30
2018-06-01T21:11:35.612Z,22.80
2018-06-01T21:14:03.041Z,22.60
2018-06-01T21:16:30.476Z,22.90
2018-06-01T21:18:57.980Z,22.50
2018-06-01T21:21:25.431Z,22.90
2018-06-01T21:23:52.852Z,22.80
2018-06-01T21:26:20.274Z,23.10
2018-06-01T21:28:47.759Z,23.00
2018-06-01T21:31:15.958Z,23.10
2018-06-01T21:33:43.388Z,23.10
2018-06-01T21:36:11.619Z,23.00
2018-06-01T21:38:39.055Z,23.00
2018-06-01T21:41:06.520Z,23.20
2018-06-01T21:43:33.972Z,23.30
2018-06-01T21:46:01.426Z,23.30
2018-06-01T21:48:28.908Z,23.30
2018-06-01T21:50:56.346Z,23.50
2018-06-01T21:53:23.782Z,23.50
2018-06-01T21:55:52.275Z,23.50
2018-06-01T21:58:19.710Z,23.10
2018-06-01T22:00:48.667Z,22.40
2018-06-01T22:03:16.108Z,22.30
2018-06-01T22:05:46.212Z,23.10
2018-06-01T22:08:13.656Z,23.00
2018-06-01T22:10:41.108Z,23.10
2018-06-01T22:13:09.322Z,22.40
2018-06-01T22:15:36.742Z,22.40
2018-06-01T22:18:04.167Z,22.90
2018-06-01T22:20:32.375Z,22.70
2018-06-01T22:22:59.802Z,22.70
2018-06-01T22:25:28.005Z,22.20
2018-06-01T22:27:55.429Z,22.20
2018-06-01T22:30:22.863Z,22.20
2018-06-01T22:32:50.296Z,22.00
2018-06-01T22:35:17.742Z,22.30
2018-06-01T22:37:45.163Z,22.20
2018-06-01T22:40:13.359Z,22.30
2018-06-01T22:42:40.794Z,22.30
2018-06-01T22:45:09.075Z,22.30
2018-06-01T22:47:37.268Z,22.20
2018-06-01T22:50:04.732Z,22.10
2018-06-01T22:52:32.147Z,22.00
2018-06-01T22:54:59.604Z,22.20
2018-06-01T22:57:27.040Z,22.20
2018-06-01T22:59:54.463Z,22.20
2018-06-01T23:02:21.897Z,22.40
2018-06-01T23:04:50.087Z,22.60
2018-06-01T23:07:18.288Z,22.50
2018-06-01T23:09:45.699Z,22.40
2018-06-01T23:12:13.904Z,22.60
2018-06-01T23:14:41.328Z,22.60
2018-06-01T23:17:09.539Z,22.30
2018-06-01T23:19:36.963Z,22.30
2018-06-01T23:22:06.099Z,22.40
2018-06-01T23:24:33.514Z,22.40
2018-06-01T23:27:01.725Z,22.10
2018-06-01T23:29:29.200Z,22.00
2018-06-01T23:31:56.641Z,22.20
2018-06-01T23:34:24.215Z,22.20
2018-06-01T23:36:51.644Z,22.40
2018-06-01T23:39:19.870Z,22.50
2018-06-01T23:41:47.327Z,22.50
2018-06-01T23:44:14.751Z,22.50
2018-06-01T23:46:42.188Z,21.60
2018-06-01T23:49:10.403Z,22.40
2018-06-01T23:51:37.835Z,22.40
2018-06-01T23:54:06.191Z,22.60
2018-06-01T23:56:34.404Z,22.60
2018-06-01T23:59:01.851Z,22.50
